sensor_id;sensor_type;location;lat;lon;timestamp;P1;durP1;ratioP1;P2;durP2;ratioP2
10596;SDS011;5346;48.766;8.674;2023-02-01T00:00:44;2.53;;;1.70;;
10596;SDS011;5346;48.766;8.674;2023-02-01T00:03:11;4.03;;;1.90;;
10596;SDS011;5346;48.766;8.674;2023-02-01T00:05:54;3.40;;;2.43;;
10596;SDS011;5346;48.766;8.674;2023-02-01T00:08:23;3.03;;;2.30;;
10596;SDS011;5346;48.766;8.674;2023-02-01T00:11:08;3.47;;;2.50;;
10596;SDS011;5346;48.766;8.674;2023-02-01T00:13:44;4.80;;;2.63;;
10596;SDS011;5346;48.766;8.674;2023-02-01T00:16:19;3.20;;;2.60;;
10596;SDS011;5346;48.766;8.674;2023-02-01T00:19:05;4.83;;;2.10;;
10596;SDS011;5346;48.766;8.674;2023-02-01T00:21:49;7.00;;;2.40;;
10596;SDS011;5346;48.766;8.674;2023-02-01T00:24:16;2.67;;;2.40;;
10596;SDS011;5346;48.766;8.674;2023-02-01T00:26:50;3.00;;;2.40;;
10596;SDS011;5346;48.766;8.674;2023-02-01T00:29:18;2.80;;;2.07;;
10596;SDS011;5346;48.766;8.674;2023-02-01T00:31:53;2.90;;;2.40;;
10596;SDS011;5346;48.766;8.674;2023-02-01T00:34:20;3.57;;;2.50;;
10596;SDS011;5346;48.766;8.674;2023-02-01T00:36:54;2.67;;;2.00;;
10596;SDS011;5346;48.766;8.674;2023-02-01T00:39:27;2.03;;;1.83;;
10596;SDS011;5346;48.766;8.674;2023-02-01T00:42:00;4.07;;;2.07;;
10596;SDS011;5346;48.766;8.674;2023-02-01T00:44:34;3.07;;;2.00;;
10596;SDS011;5346;48.766;8.674;2023-02-01T00:47:08;2.63;;;1.90;;
10596;SDS011;5346;48.766;8.674;2023-02-01T00:49:41;3.03;;;2.10;;
10596;SDS011;5346;48.766;8.674;2023-02-01T00:52:15;6.53;;;1.93;;
10596;SDS011;5346;48.766;8.674;2023-02-01T00:54:48;4.27;;;1.93;;
10596;SDS011;5346;48.766;8.674;2023-02-01T00:57:21;2.93;;;2.13;;
10596;SDS011;5346;48.766;8.674;2023-02-01T00:59:48;3.13;;;1.87;;
10596;SDS011;5346;48.766;8.674;2023-02-01T01:02:15;3.27;;;2.30;;
10596;SDS011;5346;48.766;8.674;2023-02-01T01:04:49;4.23;;;2.40;;
10596;SDS011;5346;48.766;8.674;2023-02-01T01:07:17;2.70;;;2.20;;
10596;SDS011;5346;48.766;8.674;2023-02-01T01:09:57;2.93;;;1.90;;
10596;SDS011;5346;48.766;8.674;2023-02-01T01:12:30;2.90;;;2.13;;
10596;SDS011;5346;48.766;8.674;2023-02-01T01:15:04;2.73;;;1.93;;
10596;SDS011;5346;48.766;8.674;2023-02-01T01:17:32;2.23;;;1.90;;
10596;SDS011;5346;48.766;8.674;2023-02-01T01:20:06;3.20;;;1.83;;
10596;SDS011;5346;48.766;8.674;2023-02-01T01:22:41;1.63;;;1.53;;
10596;SDS011;5346;48.766;8.674;2023-02-01T01:25:08;2.00;;;1.80;;
10596;SDS011;5346;48.766;8.674;2023-02-01T01:27:41;3.90;;;1.93;;
10596;SDS011;5346;48.766;8.674;2023-02-01T01:30:08;2.37;;;1.77;;
10596;SDS011;5346;48.766;8.674;2023-02-01T01:32:42;4.40;;;2.20;;
10596;SDS011;5346;48.766;8.674;2023-02-01T01:35:10;2.23;;;1.90;;
10596;SDS011;5346;48.766;8.674;2023-02-01T01:37:43;2.50;;;1.80;;
10596;SDS011;5346;48.766;8.674;2023-02-01T01:40:10;3.17;;;1.50;;
10596;SDS011;5346;48.766;8.674;2023-02-01T01:42:46;2.13;;;1.67;;
10596;SDS011;5346;48.766;8.674;2023-02-01T01:45:27;2.97;;;1.87;;
10596;SDS011;5346;48.766;8.674;2023-02-01T01:48:17;2.33;;;1.70;;
10596;SDS011;5346;48.766;8.674;2023-02-01T01:51:04;4.77;;;1.97;;
10596;SDS011;5346;48.766;8.674;2023-02-01T01:53:44;2.60;;;1.80;;
10596;SDS011;5346;48.766;8.674;2023-02-01T01:56:24;3.10;;;2.00;;
10596;SDS011;5346;48.766;8.674;2023-02-01T01:59:00;4.57;;;2.10;;
10596;SDS011;5346;48.766;8.674;2023-02-01T02:01:28;2.30;;;1.80;;
10596;SDS011;5346;48.766;8.674;2023-02-01T02:04:02;2.80;;;2.03;;
10596;SDS011;5346;48.766;8.674;2023-02-01T02:06:42;4.03;;;2.03;;
10596;SDS011;5346;48.766;8.674;2023-02-01T02:09:31;2.93;;;1.90;;
10596;SDS011;5346;48.766;8.674;2023-02-01T02:12:26;4.67;;;2.00;;
10596;SDS011;5346;48.766;8.674;2023-02-01T02:14:59;2.33;;;1.67;;
10596;SDS011;5346;48.766;8.674;2023-02-01T02:17:36;2.93;;;1.70;;
10596;SDS011;5346;48.766;8.674;2023-02-01T02:20:45;2.00;;;1.80;;
10596;SDS011;5346;48.766;8.674;2023-02-01T02:36:15;1.93;;;1.67;;
10596;SDS011;5346;48.766;8.674;2023-02-01T02:46:02;2.07;;;1.70;;
10596;SDS011;5346;48.766;8.674;2023-02-01T02:49:11;1.70;;;1.50;;
10596;SDS011;5346;48.766;8.674;2023-02-01T02:52:11;2.33;;;1.53;;
10596;SDS011;5346;48.766;8.674;2023-02-01T02:55:03;3.00;;;1.60;;
10596;SDS011;5346;48.766;8.674;2023-02-01T02:57:41;2.40;;;1.60;;
10596;SDS011;5346;48.766;8.674;2023-02-01T03:00:31;3.17;;;2.10;;
10596;SDS011;5346;48.766;8.674;2023-02-01T03:03:25;3.20;;;1.50;;
10596;SDS011;5346;48.766;8.674;2023-02-01T03:06:17;1.77;;;1.57;;
10596;SDS011;5346;48.766;8.674;2023-02-01T03:08:51;2.37;;;1.70;;
10596;SDS011;5346;48.766;8.674;2023-02-01T03:11:29;3.20;;;1.60;;
10596;SDS011;5346;48.766;8.674;2023-02-01T03:14:25;3.07;;;2.10;;
10596;SDS011;5346;48.766;8.674;2023-02-01T03:17:08;2.60;;;1.87;;
10596;SDS011;5346;48.766;8.674;2023-02-01T03:19:50;2.30;;;1.90;;
10596;SDS011;5346;48.766;8.674;2023-02-01T03:22:26;3.00;;;1.80;;
10596;SDS011;5346;48.766;8.674;2023-02-01T03:24:59;2.10;;;1.90;;
10596;SDS011;5346;48.766;8.674;2023-02-01T03:27:57;3.83;;;2.30;;
10596;SDS011;5346;48.766;8.674;2023-02-01T03:30:39;2.63;;;1.93;;
10596;SDS011;5346;48.766;8.674;2023-02-01T03:33:17;3.00;;;2.03;;
10596;SDS011;5346;48.766;8.674;2023-02-01T03:35:50;3.50;;;2.13;;
10596;SDS011;5346;48.766;8.674;2023-02-01T03:41:42;3.60;;;2.00;;
10596;SDS011;5346;48.766;8.674;2023-02-01T03:44:29;5.27;;;2.43;;
10596;SDS011;5346;48.766;8.674;2023-02-01T03:47:04;2.17;;;1.93;;
10596;SDS011;5346;48.766;8.674;2023-02-01T03:49:48;3.37;;;2.20;;
10596;SDS011;5346;48.766;8.674;2023-02-01T03:52:30;2.43;;;2.00;;
10596;SDS011;5346;48.766;8.674;2023-02-01T03:55:22;2.53;;;1.80;;
10596;SDS011;5346;48.766;8.674;2023-02-01T03:58:02;3.10;;;2.20;;
10596;SDS011;5346;48.766;8.674;2023-02-01T04:00:34;3.40;;;2.20;;
10596;SDS011;5346;48.766;8.674;2023-02-01T04:03:09;2.90;;;2.30;;
10596;SDS011;5346;48.766;8.674;2023-02-01T04:05:37;2.30;;;1.90;;
10596;SDS011;5346;48.766;8.674;2023-02-01T04:08:19;3.73;;;2.50;;
10596;SDS011;5346;48.766;8.674;2023-02-01T04:11:00;3.63;;;2.00;;
10596;SDS011;5346;48.766;8.674;2023-02-01T04:13:34;2.80;;;1.83;;
10596;SDS011;5346;48.766;8.674;2023-02-01T04:16:07;2.10;;;1.73;;
10596;SDS011;5346;48.766;8.674;2023-02-01T04:18:41;2.73;;;2.00;;
10596;SDS011;5346;48.766;8.674;2023-02-01T04:21:08;2.93;;;1.80;;
10596;SDS011;5346;48.766;8.674;2023-02-01T04:23:42;4.20;;;2.50;;
10596;SDS011;5346;48.766;8.674;2023-02-01T04:26:09;2.70;;;2.10;;
10596;SDS011;5346;48.766;8.674;2023-02-01T04:28:44;6.47;;;2.50;;
10596;SDS011;5346;48.766;8.674;2023-02-01T04:31:17;3.23;;;2.37;;
10596;SDS011;5346;48.766;8.674;2023-02-01T04:33:57;3.97;;;2.40;;
10596;SDS011;5346;48.766;8.674;2023-02-01T04:36:31;4.37;;;2.30;;
10596;SDS011;5346;48.766;8.674;2023-02-01T04:39:05;5.67;;;2.40;;
10596;SDS011;5346;48.766;8.674;2023-02-01T04:41:32;5.50;;;2.63;;
10596;SDS011;5346;48.766;8.674;2023-02-01T04:44:08;5.20;;;2.30;;
10596;SDS011;5346;48.766;8.674;2023-02-01T04:46:48;2.53;;;2.03;;
10596;SDS011;5346;48.766;8.674;2023-02-01T04:49:15;4.50;;;2.50;;
10596;SDS011;5346;48.766;8.674;2023-02-01T04:51:49;4.57;;;2.90;;
10596;SDS011;5346;48.766;8.674;2023-02-01T04:54:22;2.90;;;2.40;;
10596;SDS011;5346;48.766;8.674;2023-02-01T04:56:49;3.00;;;2.70;;
10596;SDS011;5346;48.766;8.674;2023-02-01T04:59:22;3.23;;;2.67;;
10596;SDS011;5346;48.766;8.674;2023-02-01T05:01:55;5.87;;;3.03;;
10596;SDS011;5346;48.766;8.674;2023-02-01T05:04:28;4.70;;;2.70;;
10596;SDS011;5346;48.766;8.674;2023-02-01T05:06:55;4.57;;;2.87;;
10596;SDS011;5346;48.766;8.674;2023-02-01T05:09:22;6.50;;;3.40;;
10596;SDS011;5346;48.766;8.674;2023-02-01T05:11:55;5.23;;;2.47;;
10596;SDS011;5346;48.766;8.674;2023-02-01T05:14:40;3.70;;;2.80;;
10596;SDS011;5346;48.766;8.674;2023-02-01T05:17:14;6.33;;;2.90;;
10596;SDS011;5346;48.766;8.674;2023-02-01T05:19:41;5.33;;;2.80;;
10596;SDS011;5346;48.766;8.674;2023-02-01T05:22:14;6.67;;;2.90;;
10596;SDS011;5346;48.766;8.674;2023-02-01T05:24:41;5.90;;;3.23;;
10596;SDS011;5346;48.766;8.674;2023-02-01T05:27:14;4.53;;;2.40;;
10596;SDS011;5346;48.766;8.674;2023-02-01T05:29:41;3.60;;;2.57;;
10596;SDS011;5346;48.766;8.674;2023-02-01T05:32:15;7.60;;;2.70;;
10596;SDS011;5346;48.766;8.674;2023-02-01T05:34:48;4.33;;;2.70;;
10596;SDS011;5346;48.766;8.674;2023-02-01T05:37:22;4.57;;;3.20;;
10596;SDS011;5346;48.766;8.674;2023-02-01T05:39:56;4.97;;;2.80;;
10596;SDS011;5346;48.766;8.674;2023-02-01T05:42:23;3.57;;;2.80;;
10596;SDS011;5346;48.766;8.674;2023-02-01T05:44:57;3.83;;;2.93;;
10596;SDS011;5346;48.766;8.674;2023-02-01T05:47:24;4.93;;;3.10;;
10596;SDS011;5346;48.766;8.674;2023-02-01T05:49:58;5.33;;;3.27;;
10596;SDS011;5346;48.766;8.674;2023-02-01T05:52:25;6.43;;;4.00;;
10596;SDS011;5346;48.766;8.674;2023-02-01T05:54:58;5.80;;;3.83;;
10596;SDS011;5346;48.766;8.674;2023-02-01T05:57:25;6.13;;;4.43;;
10596;SDS011;5346;48.766;8.674;2023-02-01T05:59:58;5.87;;;4.03;;
10596;SDS011;5346;48.766;8.674;2023-02-01T06:02:31;6.00;;;4.73;;
10596;SDS011;5346;48.766;8.674;2023-02-01T06:04:58;6.33;;;4.30;;
10596;SDS011;5346;48.766;8.674;2023-02-01T06:07:31;6.90;;;4.40;;
10596;SDS011;5346;48.766;8.674;2023-02-01T06:10:12;10.90;;;5.73;;
10596;SDS011;5346;48.766;8.674;2023-02-01T06:12:53;8.50;;;5.50;;
10596;SDS011;5346;48.766;8.674;2023-02-01T06:15:20;12.40;;;5.90;;
10596;SDS011;5346;48.766;8.674;2023-02-01T06:17:47;7.23;;;5.23;;
10596;SDS011;5346;48.766;8.674;2023-02-01T06:20:20;9.57;;;5.73;;
10596;SDS011;5346;48.766;8.674;2023-02-01T06:22:54;11.77;;;6.17;;
10596;SDS011;5346;48.766;8.674;2023-02-01T06:25:28;11.10;;;6.43;;
10596;SDS011;5346;48.766;8.674;2023-02-01T06:28:01;19.70;;;6.90;;
10596;SDS011;5346;48.766;8.674;2023-02-01T06:30:38;13.53;;;6.27;;
10596;SDS011;5346;48.766;8.674;2023-02-01T06:33:09;11.53;;;6.20;;
10596;SDS011;5346;48.766;8.674;2023-02-01T06:35:43;15.53;;;6.60;;
10596;SDS011;5346;48.766;8.674;2023-02-01T06:38:11;11.70;;;6.07;;
10596;SDS011;5346;48.766;8.674;2023-02-01T06:40:38;15.57;;;6.13;;
10596;SDS011;5346;48.766;8.674;2023-02-01T06:43:13;10.57;;;5.57;;
10596;SDS011;5346;48.766;8.674;2023-02-01T06:45:40;12.27;;;5.67;;
10596;SDS011;5346;48.766;8.674;2023-02-01T06:48:14;11.73;;;6.10;;
10596;SDS011;5346;48.766;8.674;2023-02-01T06:50:42;13.77;;;5.93;;
10596;SDS011;5346;48.766;8.674;2023-02-01T06:53:16;9.50;;;5.70;;
10596;SDS011;5346;48.766;8.674;2023-02-01T06:55:51;14.70;;;6.20;;
10596;SDS011;5346;48.766;8.674;2023-02-01T06:58:32;11.73;;;5.50;;
10596;SDS011;5346;48.766;8.674;2023-02-01T07:01:07;11.00;;;6.00;;
10596;SDS011;5346;48.766;8.674;2023-02-01T07:03:46;14.30;;;5.30;;
10596;SDS011;5346;48.766;8.674;2023-02-01T07:06:17;14.90;;;5.50;;
10596;SDS011;5346;48.766;8.674;2023-02-01T07:08:58;13.73;;;5.43;;
10596;SDS011;5346;48.766;8.674;2023-02-01T07:11:34;13.63;;;5.20;;
10596;SDS011;5346;48.766;8.674;2023-02-01T07:14:10;12.30;;;6.00;;
10596;SDS011;5346;48.766;8.674;2023-02-01T07:16:43;14.90;;;5.47;;
10596;SDS011;5346;48.766;8.674;2023-02-01T07:19:11;16.63;;;5.87;;
10596;SDS011;5346;48.766;8.674;2023-02-01T07:21:44;14.17;;;6.37;;
10596;SDS011;5346;48.766;8.674;2023-02-01T07:24:18;12.77;;;5.83;;
10596;SDS011;5346;48.766;8.674;2023-02-01T07:26:52;12.70;;;5.90;;
10596;SDS011;5346;48.766;8.674;2023-02-01T07:29:19;13.07;;;5.53;;
10596;SDS011;5346;48.766;8.674;2023-02-01T07:31:53;14.87;;;5.37;;
10596;SDS011;5346;48.766;8.674;2023-02-01T07:34:27;15.87;;;5.83;;
10596;SDS011;5346;48.766;8.674;2023-02-01T07:37:03;15.40;;;5.07;;
10596;SDS011;5346;48.766;8.674;2023-02-01T07:39:30;14.63;;;5.73;;
10596;SDS011;5346;48.766;8.674;2023-02-01T07:42:05;17.47;;;5.93;;
10596;SDS011;5346;48.766;8.674;2023-02-01T07:44:39;10.03;;;5.27;;
10596;SDS011;5346;48.766;8.674;2023-02-01T07:47:13;15.33;;;6.00;;
10596;SDS011;5346;48.766;8.674;2023-02-01T07:49:46;16.07;;;5.10;;
10596;SDS011;5346;48.766;8.674;2023-02-01T07:52:20;14.60;;;5.07;;
10596;SDS011;5346;48.766;8.674;2023-02-01T07:54:47;24.30;;;5.53;;
10596;SDS011;5346;48.766;8.674;2023-02-01T07:57:21;16.43;;;4.73;;
10596;SDS011;5346;48.766;8.674;2023-02-01T07:59:48;14.20;;;4.47;;
10596;SDS011;5346;48.766;8.674;2023-02-01T08:02:49;14.60;;;4.70;;
10596;SDS011;5346;48.766;8.674;2023-02-01T08:05:22;14.33;;;4.77;;
10596;SDS011;5346;48.766;8.674;2023-02-01T08:07:49;11.27;;;4.33;;
10596;SDS011;5346;48.766;8.674;2023-02-01T08:10:30;12.73;;;3.93;;
10596;SDS011;5346;48.766;8.674;2023-02-01T08:12:58;13.30;;;4.30;;
10596;SDS011;5346;48.766;8.674;2023-02-01T08:15:34;8.03;;;3.90;;
10596;SDS011;5346;48.766;8.674;2023-02-01T08:18:01;6.80;;;3.77;;
10596;SDS011;5346;48.766;8.674;2023-02-01T08:20:34;13.40;;;4.10;;
10596;SDS011;5346;48.766;8.674;2023-02-01T08:23:02;9.73;;;4.30;;
10596;SDS011;5346;48.766;8.674;2023-02-01T08:25:35;8.67;;;4.10;;
10596;SDS011;5346;48.766;8.674;2023-02-01T08:28:02;14.17;;;4.93;;
10596;SDS011;5346;48.766;8.674;2023-02-01T08:30:37;15.03;;;4.23;;
10596;SDS011;5346;48.766;8.674;2023-02-01T08:33:05;12.63;;;4.10;;
10596;SDS011;5346;48.766;8.674;2023-02-01T08:35:39;12.70;;;4.20;;
10596;SDS011;5346;48.766;8.674;2023-02-01T08:38:13;17.20;;;3.87;;
10596;SDS011;5346;48.766;8.674;2023-02-01T08:40:47;5.97;;;3.37;;
10596;SDS011;5346;48.766;8.674;2023-02-01T08:43:14;11.27;;;4.10;;
10596;SDS011;5346;48.766;8.674;2023-02-01T08:45:41;9.27;;;3.67;;
10596;SDS011;5346;48.766;8.674;2023-02-01T08:48:15;10.23;;;3.87;;
10596;SDS011;5346;48.766;8.674;2023-02-01T08:50:42;12.03;;;3.70;;
10596;SDS011;5346;48.766;8.674;2023-02-01T08:53:15;10.33;;;3.70;;
10596;SDS011;5346;48.766;8.674;2023-02-01T08:55:42;8.87;;;3.87;;
10596;SDS011;5346;48.766;8.674;2023-02-01T08:58:12;11.53;;;3.47;;
10596;SDS011;5346;48.766;8.674;2023-02-01T09:00:49;10.20;;;3.83;;
10596;SDS011;5346;48.766;8.674;2023-02-01T09:03:17;10.77;;;3.80;;
10596;SDS011;5346;48.766;8.674;2023-02-01T09:05:50;12.37;;;3.60;;
10596;SDS011;5346;48.766;8.674;2023-02-01T09:08:24;13.73;;;4.03;;
10596;SDS011;5346;48.766;8.674;2023-02-01T09:11:06;12.47;;;3.80;;
10596;SDS011;5346;48.766;8.674;2023-02-01T09:13:44;11.83;;;3.93;;
10596;SDS011;5346;48.766;8.674;2023-02-01T09:16:13;10.63;;;3.63;;
10596;SDS011;5346;48.766;8.674;2023-02-01T09:18:40;8.63;;;3.40;;
10596;SDS011;5346;48.766;8.674;2023-02-01T09:21:27;14.87;;;3.87;;
10596;SDS011;5346;48.766;8.674;2023-02-01T09:24:01;12.60;;;3.33;;
10596;SDS011;5346;48.766;8.674;2023-02-01T09:26:30;15.43;;;3.43;;
10596;SDS011;5346;48.766;8.674;2023-02-01T09:29:03;11.17;;;3.10;;
10596;SDS011;5346;48.766;8.674;2023-02-01T09:31:36;11.40;;;2.47;;
10596;SDS011;5346;48.766;8.674;2023-02-01T09:34:27;8.20;;;2.87;;
10596;SDS011;5346;48.766;8.674;2023-02-01T09:36:55;12.83;;;3.00;;
10596;SDS011;5346;48.766;8.674;2023-02-01T09:39:28;13.10;;;3.33;;
10596;SDS011;5346;48.766;8.674;2023-02-01T09:48:24;10.00;;;2.40;;
10596;SDS011;5346;48.766;8.674;2023-02-01T09:50:59;10.13;;;2.60;;
10596;SDS011;5346;48.766;8.674;2023-02-01T09:53:38;8.13;;;2.60;;
10596;SDS011;5346;48.766;8.674;2023-02-01T09:56:12;7.47;;;2.67;;
10596;SDS011;5346;48.766;8.674;2023-02-01T10:02:08;9.93;;;2.30;;
10596;SDS011;5346;48.766;8.674;2023-02-01T10:04:50;7.87;;;3.03;;
10596;SDS011;5346;48.766;8.674;2023-02-01T10:19:00;7.10;;;2.40;;
10596;SDS011;5346;48.766;8.674;2023-02-01T10:24:46;11.57;;;2.33;;
10596;SDS011;5346;48.766;8.674;2023-02-01T10:27:39;10.53;;;2.57;;
10596;SDS011;5346;48.766;8.674;2023-02-01T10:30:19;10.13;;;2.27;;
10596;SDS011;5346;48.766;8.674;2023-02-01T10:33:15;10.73;;;3.40;;
10596;SDS011;5346;48.766;8.674;2023-02-01T10:36:10;13.40;;;3.10;;
10596;SDS011;5346;48.766;8.674;2023-02-01T10:38:51;9.47;;;2.37;;
10596;SDS011;5346;48.766;8.674;2023-02-01T10:41:22;10.33;;;2.73;;
10596;SDS011;5346;48.766;8.674;2023-02-01T10:44:03;7.20;;;2.50;;
10596;SDS011;5346;48.766;8.674;2023-02-01T10:46:38;10.80;;;2.80;;
10596;SDS011;5346;48.766;8.674;2023-02-01T10:49:13;11.83;;;2.20;;
10596;SDS011;5346;48.766;8.674;2023-02-01T10:52:18;11.30;;;2.33;;
10596;SDS011;5346;48.766;8.674;2023-02-01T10:55:32;10.93;;;2.90;;
10596;SDS011;5346;48.766;8.674;2023-02-01T10:58:27;7.07;;;2.87;;
10596;SDS011;5346;48.766;8.674;2023-02-01T11:01:00;5.93;;;1.90;;
10596;SDS011;5346;48.766;8.674;2023-02-01T11:03:44;12.90;;;2.60;;
10596;SDS011;5346;48.766;8.674;2023-02-01T11:06:28;9.87;;;2.97;;
10596;SDS011;5346;48.766;8.674;2023-02-01T11:09:23;8.73;;;2.60;;
10596;SDS011;5346;48.766;8.674;2023-02-01T11:11:53;13.77;;;2.97;;
10596;SDS011;5346;48.766;8.674;2023-02-01T11:14:39;13.47;;;2.97;;
10596;SDS011;5346;48.766;8.674;2023-02-01T11:17:17;10.23;;;2.60;;
10596;SDS011;5346;48.766;8.674;2023-02-01T11:20:04;9.57;;;2.50;;
10596;SDS011;5346;48.766;8.674;2023-02-01T11:22:48;7.10;;;1.93;;
10596;SDS011;5346;48.766;8.674;2023-02-01T11:25:21;7.40;;;2.43;;
10596;SDS011;5346;48.766;8.674;2023-02-01T11:27:57;8.57;;;2.57;;
10596;SDS011;5346;48.766;8.674;2023-02-01T11:30:33;9.43;;;2.47;;
10596;SDS011;5346;48.766;8.674;2023-02-01T11:33:17;11.93;;;2.30;;
10596;SDS011;5346;48.766;8.674;2023-02-01T11:35:51;8.50;;;2.33;;
10596;SDS011;5346;48.766;8.674;2023-02-01T11:38:28;9.03;;;3.13;;
10596;SDS011;5346;48.766;8.674;2023-02-01T11:41:21;12.90;;;2.70;;
10596;SDS011;5346;48.766;8.674;2023-02-01T11:43:58;10.67;;;2.40;;
10596;SDS011;5346;48.766;8.674;2023-02-01T11:46:35;15.83;;;2.50;;
10596;SDS011;5346;48.766;8.674;2023-02-01T11:49:15;7.20;;;2.33;;
10596;SDS011;5346;48.766;8.674;2023-02-01T11:52:09;11.53;;;2.83;;
10596;SDS011;5346;48.766;8.674;2023-02-01T11:55:16;9.70;;;2.20;;
10596;SDS011;5346;48.766;8.674;2023-02-01T12:01:16;12.50;;;2.53;;
10596;SDS011;5346;48.766;8.674;2023-02-01T12:41:45;15.27;;;2.90;;
10596;SDS011;5346;48.766;8.674;2023-02-01T12:44:29;8.90;;;2.30;;
10596;SDS011;5346;48.766;8.674;2023-02-01T12:47:22;10.57;;;2.50;;
10596;SDS011;5346;48.766;8.674;2023-02-01T12:53:14;5.47;;;1.80;;
10596;SDS011;5346;48.766;8.674;2023-02-01T12:55:57;9.93;;;2.23;;
10596;SDS011;5346;48.766;8.674;2023-02-01T12:58:44;8.90;;;2.47;;
10596;SDS011;5346;48.766;8.674;2023-02-01T13:01:36;7.77;;;2.30;;
10596;SDS011;5346;48.766;8.674;2023-02-01T13:04:17;5.00;;;2.30;;
10596;SDS011;5346;48.766;8.674;2023-02-01T13:07:31;7.97;;;2.23;;
10596;SDS011;5346;48.766;8.674;2023-02-01T13:13:28;11.77;;;3.20;;
10596;SDS011;5346;48.766;8.674;2023-02-01T13:16:40;12.80;;;2.73;;
10596;SDS011;5346;48.766;8.674;2023-02-01T13:19:23;12.50;;;2.30;;
10596;SDS011;5346;48.766;8.674;2023-02-01T13:22:09;9.70;;;2.37;;
10596;SDS011;5346;48.766;8.674;2023-02-01T13:25:11;6.70;;;2.50;;
10596;SDS011;5346;48.766;8.674;2023-02-01T13:27:42;11.33;;;2.67;;
10596;SDS011;5346;48.766;8.674;2023-02-01T13:30:23;4.37;;;2.10;;
10596;SDS011;5346;48.766;8.674;2023-02-01T13:45:04;13.60;;;3.33;;
10596;SDS011;5346;48.766;8.674;2023-02-01T13:47:42;7.77;;;2.50;;
10596;SDS011;5346;48.766;8.674;2023-02-01T13:50:24;10.50;;;2.90;;
10596;SDS011;5346;48.766;8.674;2023-02-01T13:56:27;13.73;;;3.03;;
10596;SDS011;5346;48.766;8.674;2023-02-01T13:58:57;9.83;;;2.37;;
10596;SDS011;5346;48.766;8.674;2023-02-01T14:10:54;12.17;;;2.60;;
10596;SDS011;5346;48.766;8.674;2023-02-01T14:16:15;13.63;;;3.37;;
10596;SDS011;5346;48.766;8.674;2023-02-01T14:21:23;13.97;;;3.20;;
10596;SDS011;5346;48.766;8.674;2023-02-01T14:34:40;7.10;;;2.63;;
10596;SDS011;5346;48.766;8.674;2023-02-01T14:37:34;10.00;;;2.70;;
10596;SDS011;5346;48.766;8.674;2023-02-01T14:42:59;10.27;;;3.23;;
10596;SDS011;5346;48.766;8.674;2023-02-01T14:50:39;10.77;;;2.40;;
10596;SDS011;5346;48.766;8.674;2023-02-01T14:53:20;10.40;;;3.13;;
10596;SDS011;5346;48.766;8.674;2023-02-01T15:01:48;8.57;;;2.70;;
10596;SDS011;5346;48.766;8.674;2023-02-01T15:04:25;9.47;;;2.40;;
10596;SDS011;5346;48.766;8.674;2023-02-01T15:07:07;5.93;;;2.33;;
10596;SDS011;5346;48.766;8.674;2023-02-01T15:09:43;9.80;;;2.93;;
10596;SDS011;5346;48.766;8.674;2023-02-01T15:12:27;6.70;;;2.60;;
10596;SDS011;5346;48.766;8.674;2023-02-01T15:15:15;10.83;;;2.67;;
10596;SDS011;5346;48.766;8.674;2023-02-01T15:17:51;9.60;;;2.50;;
10596;SDS011;5346;48.766;8.674;2023-02-01T15:20:22;12.93;;;2.60;;
10596;SDS011;5346;48.766;8.674;2023-02-01T15:23:01;10.63;;;1.90;;
10596;SDS011;5346;48.766;8.674;2023-02-01T15:25:34;12.73;;;3.50;;
10596;SDS011;5346;48.766;8.674;2023-02-01T15:28:14;8.77;;;2.40;;
10596;SDS011;5346;48.766;8.674;2023-02-01T15:30:52;4.63;;;2.00;;
10596;SDS011;5346;48.766;8.674;2023-02-01T15:33:33;13.77;;;3.53;;
10596;SDS011;5346;48.766;8.674;2023-02-01T15:38:39;10.67;;;2.50;;
10596;SDS011;5346;48.766;8.674;2023-02-01T15:41:13;9.80;;;2.77;;
10596;SDS011;5346;48.766;8.674;2023-02-01T15:44:03;16.73;;;2.60;;
10596;SDS011;5346;48.766;8.674;2023-02-01T15:46:45;11.90;;;3.07;;
10596;SDS011;5346;48.766;8.674;2023-02-01T15:49:27;9.17;;;2.97;;
10596;SDS011;5346;48.766;8.674;2023-02-01T15:52:13;11.37;;;2.50;;
10596;SDS011;5346;48.766;8.674;2023-02-01T15:58:13;11.27;;;2.50;;
10596;SDS011;5346;48.766;8.674;2023-02-01T16:00:57;13.93;;;2.87;;
10596;SDS011;5346;48.766;8.674;2023-02-01T16:03:43;11.73;;;2.23;;
10596;SDS011;5346;48.766;8.674;2023-02-01T16:09:00;8.43;;;2.80;;
10596;SDS011;5346;48.766;8.674;2023-02-01T16:12:03;9.40;;;2.50;;
10596;SDS011;5346;48.766;8.674;2023-02-01T16:14:36;10.40;;;2.50;;
10596;SDS011;5346;48.766;8.674;2023-02-01T16:17:10;10.50;;;2.87;;
10596;SDS011;5346;48.766;8.674;2023-02-01T16:19:44;7.23;;;2.67;;
10596;SDS011;5346;48.766;8.674;2023-02-01T16:22:18;13.00;;;2.70;;
10596;SDS011;5346;48.766;8.674;2023-02-01T16:24:53;13.93;;;2.57;;
10596;SDS011;5346;48.766;8.674;2023-02-01T16:27:26;8.03;;;2.77;;
10596;SDS011;5346;48.766;8.674;2023-02-01T16:30:02;15.43;;;2.60;;
10596;SDS011;5346;48.766;8.674;2023-02-01T16:32:30;15.93;;;2.93;;
10596;SDS011;5346;48.766;8.674;2023-02-01T16:35:17;14.07;;;2.70;;
10596;SDS011;5346;48.766;8.674;2023-02-01T16:38:10;8.47;;;2.40;;
10596;SDS011;5346;48.766;8.674;2023-02-01T16:40:40;8.23;;;2.03;;
10596;SDS011;5346;48.766;8.674;2023-02-01T16:43:22;15.37;;;2.53;;
10596;SDS011;5346;48.766;8.674;2023-02-01T16:45:59;11.43;;;2.57;;
10596;SDS011;5346;48.766;8.674;2023-02-01T16:48:33;10.60;;;2.70;;
10596;SDS011;5346;48.766;8.674;2023-02-01T16:51:09;5.33;;;2.20;;
10596;SDS011;5346;48.766;8.674;2023-02-01T16:53:39;8.37;;;2.40;;
10596;SDS011;5346;48.766;8.674;2023-02-01T16:56:53;11.90;;;2.73;;
10596;SDS011;5346;48.766;8.674;2023-02-01T16:59:14;10.00;;;2.60;;
10596;SDS011;5346;48.766;8.674;2023-02-01T17:01:48;16.53;;;4.73;;
10596;SDS011;5346;48.766;8.674;2023-02-01T17:04:22;6.47;;;2.40;;
10596;SDS011;5346;48.766;8.674;2023-02-01T17:06:50;13.00;;;3.23;;
10596;SDS011;5346;48.766;8.674;2023-02-01T17:09:31;7.70;;;2.40;;
10596;SDS011;5346;48.766;8.674;2023-02-01T17:12:22;7.40;;;2.50;;
10596;SDS011;5346;48.766;8.674;2023-02-01T17:14:58;9.57;;;2.50;;
10596;SDS011;5346;48.766;8.674;2023-02-01T17:17:27;8.73;;;2.67;;
10596;SDS011;5346;48.766;8.674;2023-02-01T17:20:18;8.40;;;2.20;;
10596;SDS011;5346;48.766;8.674;2023-02-01T17:22:54;15.83;;;2.87;;
10596;SDS011;5346;48.766;8.674;2023-02-01T17:25:22;15.07;;;3.20;;
10596;SDS011;5346;48.766;8.674;2023-02-01T17:27:59;9.97;;;3.03;;
10596;SDS011;5346;48.766;8.674;2023-02-01T17:30:26;9.17;;;2.90;;
10596;SDS011;5346;48.766;8.674;2023-02-01T17:33:01;14.40;;;4.77;;
10596;SDS011;5346;48.766;8.674;2023-02-01T17:35:47;17.23;;;4.07;;
10596;SDS011;5346;48.766;8.674;2023-02-01T17:38:22;10.33;;;2.93;;
10596;SDS011;5346;48.766;8.674;2023-02-01T17:40:57;8.93;;;2.93;;
10596;SDS011;5346;48.766;8.674;2023-02-01T17:43:25;17.87;;;2.80;;
10596;SDS011;5346;48.766;8.674;2023-02-01T17:46:01;10.57;;;2.60;;
10596;SDS011;5346;48.766;8.674;2023-02-01T17:48:32;8.20;;;2.70;;
10596;SDS011;5346;48.766;8.674;2023-02-01T17:51:18;9.07;;;2.37;;
10596;SDS011;5346;48.766;8.674;2023-02-01T17:53:54;9.20;;;2.87;;
10596;SDS011;5346;48.766;8.674;2023-02-01T17:56:22;9.57;;;2.70;;
10596;SDS011;5346;48.766;8.674;2023-02-01T17:58:57;9.97;;;2.70;;
10596;SDS011;5346;48.766;8.674;2023-02-01T18:01:31;8.80;;;2.60;;
10596;SDS011;5346;48.766;8.674;2023-02-01T18:04:08;17.60;;;2.80;;
10596;SDS011;5346;48.766;8.674;2023-02-01T18:06:38;11.23;;;2.57;;
10596;SDS011;5346;48.766;8.674;2023-02-01T18:09:12;9.47;;;2.37;;
10596;SDS011;5346;48.766;8.674;2023-02-01T18:11:47;11.13;;;3.00;;
10596;SDS011;5346;48.766;8.674;2023-02-01T18:14:22;13.03;;;2.77;;
10596;SDS011;5346;48.766;8.674;2023-02-01T18:16:59;13.40;;;3.13;;
10596;SDS011;5346;48.766;8.674;2023-02-01T18:19:27;10.33;;;3.30;;
10596;SDS011;5346;48.766;8.674;2023-02-01T18:22:01;19.13;;;2.53;;
10596;SDS011;5346;48.766;8.674;2023-02-01T18:24:31;9.73;;;3.00;;
10596;SDS011;5346;48.766;8.674;2023-02-01T18:27:08;14.70;;;2.40;;
10596;SDS011;5346;48.766;8.674;2023-02-01T18:29:35;8.23;;;2.20;;
10596;SDS011;5346;48.766;8.674;2023-02-01T18:32:09;12.23;;;2.80;;